Time;durP1;ratioP1;P1;durP2;ratioP2;P2;SDS_P1;SDS_P2;PMS_P1;PMS_P2;Temp;Humidity;BMP_temperature;BMP_pressure;BME280_temperature;BME280_humidity;BME280_pressure;Samples;Min_cycle;Max_cycle;Signal;HPM_P1;HPM_P2
2022/11/21 00:00:21;;;;;;;26.58;14.60;;;2.60;99.90;;;;;;5107110;28;20127;-78
2022/11/21 00:02:47;;;;;;;23.05;14.60;;;3.50;99.90;;;;;;5094679;28;20099;-78
2022/11/21 00:05:12;;;;;;;22.67;15.70;;;2.40;99.90;;;;;;5077069;28;20071;-78
2022/11/21 00:07:38;;;;;;;22.33;14.20;;;2.40;99.90;;;;;;5097226;27;20047;-78
2022/11/21 00:10:04;;;;;;;21.83;14.73;;;2.40;99.90;;;;;;5117575;27;20129;-78
2022/11/21 00:12:30;;;;;;;25.17;14.88;;;2.40;99.90;;;;;;5137263;27;20129;-77
2022/11/21 00:14:56;;;;;;;20.65;14.35;;;2.40;99.90;;;;;;5118430;27;20081;-78
2022/11/21 00:17:21;;;;;;;21.92;14.85;;;3.20;99.90;;;;;;5118322;27;20051;-78
2022/11/21 00:19:47;;;;;;;25.20;15.20;;;3.40;99.90;;;;;;5099278;28;20042;-78
2022/11/21 00:22:13;;;;;;;22.70;14.98;;;3.50;99.90;;;;;;5086339;27;20038;-78
2022/11/21 00:24:38;;;;;;;21.52;14.25;;;2.30;99.90;;;;;;5131962;27;20040;-78
2022/11/21 00:27:04;;;;;;;21.50;15.00;;;2.80;99.90;;;;;;5116508;28;20043;-78
2022/11/21 00:29:30;;;;;;;22.23;15.25;;;2.30;99.90;;;;;;5113346;27;20107;-78
2022/11/21 00:31:55;;;;;;;24.48;15.50;;;3.70;99.90;;;;;;5101041;27;20414;-78
2022/11/21 00:34:21;;;;;;;24.42;16.02;;;2.30;99.90;;;;;;5136671;27;20042;-77
2022/11/21 00:36:47;;;;;;;22.73;15.55;;;2.30;99.90;;;;;;5118121;27;20039;-78
2022/11/21 00:39:12;;;;;;;25.48;15.85;;;2.30;99.90;;;;;;5103855;28;20044;-78
2022/11/21 00:41:38;;;;;;;23.80;15.32;;;2.60;99.90;;;;;;5139905;27;20489;-78
2022/11/21 00:44:04;;;;;;;24.17;15.95;;;2.30;99.90;;;;;;5139575;27;20125;-79
2022/11/21 00:46:29;;;;;;;24.17;15.40;;;2.30;99.90;;;;;;5138273;27;20502;-78
2022/11/21 00:48:55;;;;;;;21.00;14.70;;;3.50;99.90;;;;;;5157668;27;20043;-78
2022/11/21 00:51:21;;;;;;;21.92;14.95;;;2.40;99.90;;;;;;5124092;27;20047;-77
2022/11/21 00:53:47;;;;;;;22.92;14.88;;;3.60;99.90;;;;;;5136519;27;20054;-78
2022/11/21 00:56:13;;;;;;;25.95;14.65;;;2.40;99.90;;;;;;5136459;27;20050;-77
2022/11/21 00:58:38;;;;;;;24.23;15.02;;;2.30;99.90;;;;;;5119119;27;20473;-78
2022/11/21 01:01:15;;;;;;;23.13;15.95;;;3.70;99.90;;;;;;5117960;27;20125;-78
2022/11/21 01:03:41;;;;;;;23.65;15.75;;;2.30;99.90;;;;;;5117986;27;20126;-78
2022/11/21 01:06:10;;;;;;;24.25;16.38;;;2.20;99.90;;;;;;5135693;27;20056;-78
2022/11/21 01:08:38;;;;;;;23.00;15.60;;;2.60;99.90;;;;;;5117406;27;20078;-78
2022/11/21 01:11:10;;;;;;;23.17;15.18;;;2.20;99.90;;;;;;5117466;27;20035;-78
2022/11/21 01:13:36;;;;;;;23.45;15.52;;;2.10;99.90;;;;;;5116957;27;20082;-78
2022/11/21 01:16:07;;;;;;;24.60;15.80;;;2.10;99.90;;;;;;5100092;27;20050;-78
2022/11/21 01:18:34;;;;;;;23.38;16.08;;;2.10;99.90;;;;;;5117515;27;20039;-78
2022/11/21 01:21:05;;;;;;;25.80;16.50;;;2.60;99.90;;;;;;5135493;27;20143;-78
2022/11/21 01:23:31;;;;;;;25.00;16.83;;;2.00;99.90;;;;;;5135883;27;20035;-78
2022/11/21 01:26:04;;;;;;;24.00;15.95;;;3.30;99.90;;;;;;5117274;27;20039;-78
2022/11/21 01:28:31;;;;;;;21.83;15.32;;;2.00;99.90;;;;;;5100502;27;20128;-78
2022/11/21 01:31:23;;;;;;;22.92;14.82;;;1.60;99.90;;;;;;5100457;27;20039;-78
2022/11/21 01:33:49;;;;;;;22.75;15.85;;;1.90;99.90;;;;;;5117156;27;20047;-77
2022/11/21 01:36:17;;;;;;;23.48;16.35;;;1.90;99.90;;;;;;5117044;27;20049;-78
2022/11/21 01:38:45;;;;;;;23.50;15.90;;;3.20;99.90;;;;;;5135441;27;20042;-78
2022/11/21 01:41:13;;;;;;;24.42;17.13;;;1.80;99.90;;;;;;5100045;27;20043;-78
2022/11/21 01:43:39;;;;;;;24.92;16.92;;;3.00;99.90;;;;;;5116489;27;20071;-78
2022/11/21 01:46:08;;;;;;;21.70;16.48;;;1.80;99.90;;;;;;5134867;27;20058;-78
2022/11/21 01:48:33;;;;;;;23.60;15.65;;;1.70;99.90;;;;;;5099864;27;20045;-78
2022/11/21 01:51:10;;;;;;;23.00;16.27;;;1.70;99.90;;;;;;5116805;27;20035;-78
2022/11/21 01:53:38;;;;;;;23.58;16.23;;;1.90;99.90;;;;;;5117335;27;20055;-80
2022/11/21 01:56:05;;;;;;;25.88;16.92;;;1.60;99.90;;;;;;5097128;28;20044;-78
2022/11/21 01:58:32;;;;;;;26.05;17.50;;;1.60;99.90;;;;;;5094520;28;20093;-78
2022/11/21 02:00:58;;;;;;;26.40;17.25;;;1.50;99.90;;;;;;5114581;28;20114;-78
2022/11/21 02:03:31;;;;;;;24.83;17.65;;;1.50;99.90;;;;;;5096322;28;20075;-78
2022/11/21 02:05:58;;;;;;;26.10;18.25;;;2.60;99.90;;;;;;5114457;28;20499;-78
2022/11/21 02:08:26;;;;;;;28.10;18.33;;;1.50;99.90;;;;;;5079506;28;20043;-78
2022/11/21 02:11:11;;;;;;;24.73;17.75;;;1.50;99.90;;;;;;5115410;28;20051;-78
2022/11/21 02:13:36;;;;;;;26.42;18.90;;;1.50;99.90;;;;;;5094535;28;20411;-78
2022/11/21 02:16:02;;;;;;;24.63;18.27;;;1.50;99.90;;;;;;5114259;28;20405;-78
2022/11/21 02:18:28;;;;;;;24.20;17.83;;;1.40;99.90;;;;;;5096289;28;20035;-78
2022/11/21 02:21:06;;;;;;;27.35;18.55;;;1.40;99.90;;;;;;5096854;28;20084;-78
2022/11/21 02:23:43;;;;;;;28.38;18.48;;;2.70;99.90;;;;;;5096791;28;20430;-78
2022/11/21 02:26:09;;;;;;;25.63;18.70;;;1.40;99.90;;;;;;5114282;28;20436;-78
2022/11/21 02:28:35;;;;;;;25.17;18.80;;;1.40;99.90;;;;;;5079001;28;20161;-78
2022/11/21 02:31:03;;;;;;;30.23;19.50;;;1.60;99.90;;;;;;5113664;28;20040;-78
2022/11/21 02:33:29;;;;;;;27.33;18.73;;;1.80;99.90;;;;;;5114046;28;20054;-77
2022/11/21 02:35:56;;;;;;;26.83;19.55;;;1.30;99.90;;;;;;5078591;28;20126;-78
2022/11/21 02:38:29;;;;;;;24.80;18.15;;;1.30;99.90;;;;;;5095684;28;20036;-78
2022/11/21 02:41:16;;;;;;;27.10;18.58;;;2.20;99.90;;;;;;5106255;27;20485;-77
2022/11/21 02:43:50;;;;;;;25.33;18.75;;;2.10;99.90;;;;;;5126787;27;20519;-78
2022/11/21 02:46:15;;;;;;;25.10;18.08;;;1.20;99.90;;;;;;5099486;27;20061;-78
2022/11/21 02:48:41;;;;;;;26.48;19.08;;;1.20;99.90;;;;;;5134505;27;20118;-78
2022/11/21 02:51:07;;;;;;;28.08;18.05;;;1.20;99.90;;;;;;5134046;27;20104;-78
2022/11/21 02:53:32;;;;;;;27.63;18.55;;;1.20;99.90;;;;;;5115634;27;20043;-78
2022/11/21 02:55:58;;;;;;;27.80;18.77;;;1.50;99.90;;;;;;5134211;27;20127;-78
2022/11/21 02:58:24;;;;;;;29.20;20.25;;;2.60;99.90;;;;;;5116811;27;20498;-78
2022/11/21 03:00:49;;;;;;;27.77;19.98;;;1.20;99.90;;;;;;5113171;27;20088;-78
2022/11/21 03:03:15;;;;;;;26.80;19.23;;;1.10;99.90;;;;;;5114189;27;20050;-78
2022/11/21 03:05:41;;;;;;;28.05;19.70;;;1.10;99.90;;;;;;5115692;27;20064;-78
2022/11/21 03:08:07;;;;;;;27.70;19.23;;;2.60;99.90;;;;;;5116312;27;20403;-77
2022/11/21 03:10:33;;;;;;;27.48;18.83;;;1.10;99.90;;;;;;5131680;27;20058;-78
2022/11/21 03:13:02;;;;;;;29.05;19.33;;;2.70;99.90;;;;;;5098527;27;20043;-78
2022/11/21 03:15:29;;;;;;;28.10;19.38;;;2.00;99.90;;;;;;5115332;27;20511;-78
2022/11/21 03:17:56;;;;;;;28.73;18.98;;;2.10;99.90;;;;;;5132392;27;20109;-77
2022/11/21 03:20:22;;;;;;;27.52;20.08;;;1.10;99.90;;;;;;5078246;28;20098;-78
2022/11/21 03:22:49;;;;;;;27.90;19.85;;;1.90;99.90;;;;;;5113240;28;20131;-78
2022/11/21 03:25:14;;;;;;;29.05;19.85;;;1.00;99.90;;;;;;5076672;28;20039;-78
2022/11/21 03:27:40;;;;;;;29.52;20.30;;;1.00;99.90;;;;;;5095525;28;20042;-78
2022/11/21 03:30:07;;;;;;;30.23;20.67;;;0.90;99.90;;;;;;5095810;28;20036;-78
2022/11/21 03:32:32;;;;;;;30.20;20.20;;;0.90;99.90;;;;;;5095229;28;20043;-78
2022/11/21 03:34:58;;;;;;;29.65;20.63;;;0.90;99.90;;;;;;5113269;28;20058;-78
2022/11/21 03:37:23;;;;;;;28.33;20.40;;;0.80;99.90;;;;;;5094713;28;20130;-78
2022/11/21 03:39:49;;;;;;;30.88;20.95;;;2.10;99.90;;;;;;5112833;28;20051;-78
2022/11/21 03:42:15;;;;;;;29.75;21.23;;;0.80;99.90;;;;;;5113219;28;20081;-78
2022/11/21 03:44:41;;;;;;;29.10;20.38;;;0.90;99.90;;;;;;5095970;27;20146;-78
2022/11/21 03:47:06;;;;;;;31.25;21.90;;;0.80;99.90;;;;;;5133598;28;20058;-78
2022/11/21 03:49:32;;;;;;;31.05;21.80;;;1.20;99.90;;;;;;5097754;28;20459;-78
2022/11/21 03:51:58;;;;;;;29.48;21.50;;;0.80;99.90;;;;;;5133238;27;20039;-78
2022/11/21 03:54:23;;;;;;;30.80;20.67;;;1.30;99.90;;;;;;5114982;28;20100;-78
2022/11/21 03:56:49;;;;;;;28.73;20.40;;;1.80;99.90;;;;;;5114746;27;20046;-78
2022/11/21 03:59:15;;;;;;;33.25;23.05;;;1.20;99.90;;;;;;5113101;28;20043;-78
2022/11/21 04:01:40;;;;;;;28.70;20.95;;;0.70;99.90;;;;;;5127328;28;20043;-78
2022/11/21 04:04:06;;;;;;;32.13;22.23;;;2.00;99.90;;;;;;5114538;28;20039;-79
2022/11/21 04:06:32;;;;;;;32.85;21.42;;;0.70;99.90;;;;;;5114341;28;20066;-78
2022/11/21 04:08:57;;;;;;;30.38;21.35;;;0.70;99.90;;;;;;5113634;28;20039;-78
2022/11/21 04:11:23;;;;;;;35.03;23.17;;;0.70;99.90;;;;;;5099743;28;20039;-77
2022/11/21 04:13:50;;;;;;;33.08;21.98;;;0.70;99.90;;;;;;5133021;27;20051;-78
2022/11/21 04:16:16;;;;;;;30.88;22.17;;;1.70;99.90;;;;;;5114675;28;20039;-78
2022/11/21 04:18:42;;;;;;;32.13;22.10;;;2.30;99.90;;;;;;5133446;27;20384;-78
2022/11/21 04:21:10;;;;;;;33.35;22.65;;;0.80;99.90;;;;;;5133083;28;20054;-78
2022/11/21 04:23:36;;;;;;;33.28;22.02;;;0.70;99.90;;;;;;5132895;27;20027;-78
2022/11/21 04:26:03;;;;;;;32.72;21.33;;;0.70;99.90;;;;;;5115582;28;20047;-78
2022/11/21 04:28:28;;;;;;;33.40;22.75;;;1.10;99.90;;;;;;5098806;28;20137;-78
2022/11/21 04:30:54;;;;;;;34.85;22.45;;;0.60;99.90;;;;;;5103533;28;20071;-78
2022/11/21 04:33:20;;;;;;;32.33;20.52;;;0.70;99.90;;;;;;5111390;28;20233;-78
2022/11/21 04:35:46;;;;;;;30.98;21.10;;;1.20;99.90;;;;;;5094277;28;20484;-78
2022/11/21 04:38:13;;;;;;;33.63;21.85;;;2.20;99.90;;;;;;5113467;28;20055;-78
2022/11/21 04:40:39;;;;;;;34.85;22.40;;;2.50;99.90;;;;;;5113424;28;20054;-78
2022/11/21 04:43:05;;;;;;;32.50;21.92;;;1.70;99.90;;;;;;5112738;28;20032;-79
2022/11/21 04:45:31;;;;;;;30.42;21.15;;;0.80;99.90;;;;;;5077113;28;20116;-78
2022/11/21 04:47:57;;;;;;;32.53;22.00;;;0.80;99.90;;;;;;5112127;28;20407;-78
2022/11/21 04:50:22;;;;;;;32.05;21.98;;;0.70;99.90;;;;;;5076393;28;20052;-78
2022/11/21 04:52:53;;;;;;;31.20;21.85;;;0.70;99.90;;;;;;5095104;28;20046;-78
2022/11/21 04:55:20;;;;;;;32.47;21.63;;;1.80;99.90;;;;;;5097755;28;20134;-78
2022/11/21 04:57:46;;;;;;;29.00;19.90;;;1.10;99.90;;;;;;5116159;28;20475;-78
2022/11/21 05:00:13;;;;;;;32.58;21.90;;;0.80;99.90;;;;;;5122589;27;20066;-78
2022/11/21 05:02:39;;;;;;;30.88;21.50;;;0.80;99.90;;;;;;5117941;27;20058;-78
2022/11/21 05:05:05;;;;;;;29.42;20.17;;;2.20;99.90;;;;;;5100875;27;20047;-78
2022/11/21 05:07:31;;;;;;;29.48;20.48;;;0.80;99.90;;;;;;5117532;27;20039;-77
2022/11/21 05:09:56;;;;;;;33.00;19.85;;;2.20;99.90;;;;;;5109209;28;20343;-78
2022/11/21 05:15:07;;;;;;;30.20;20.98;;;1.80;99.90;;;;;;5134150;27;20043;-78
2022/11/21 05:17:33;;;;;;;31.65;21.85;;;0.70;99.90;;;;;;5135718;27;20043;-78
2022/11/21 05:20:02;;;;;;;35.35;23.20;;;0.60;99.90;;;;;;5135513;27;20043;-78
2022/11/21 05:22:28;;;;;;;32.63;21.92;;;0.70;99.90;;;;;;5117322;27;20075;-77
2022/11/21 05:24:53;;;;;;;33.83;22.42;;;0.70;99.90;;;;;;5100780;27;20063;-77
2022/11/21 05:27:19;;;;;;;32.45;21.85;;;1.70;99.90;;;;;;5136771;27;20035;-78
2022/11/21 05:29:45;;;;;;;34.47;22.38;;;0.90;99.90;;;;;;5117845;27;20096;-78
2022/11/21 05:32:14;;;;;;;35.22;22.73;;;1.60;99.90;;;;;;5117689;27;20050;-78
2022/11/21 05:34:39;;;;;;;31.75;21.83;;;0.60;99.90;;;;;;5117490;27;20043;-78
2022/11/21 05:37:05;;;;;;;33.88;22.50;;;0.60;99.90;;;;;;5135617;27;20046;-78
2022/11/21 05:39:31;;;;;;;34.35;22.15;;;0.60;99.90;;;;;;5117411;27;20047;-78
2022/11/21 05:41:57;;;;;;;32.03;21.13;;;0.60;99.90;;;;;;5135504;27;20035;-77
2022/11/21 05:44:23;;;;;;;32.88;21.35;;;-0.50;99.90;;;;;;5116870;27;20078;-78
2022/11/21 05:46:48;;;;;;;31.80;22.77;;;1.70;99.90;;;;;;5136016;27;20057;-78
2022/11/21 05:49:14;;;;;;;35.42;21.40;;;1.70;99.90;;;;;;5100262;27;20039;-77
2022/11/21 05:51:40;;;;;;;36.60;21.80;;;0.80;99.90;;;;;;5135103;27;20073;-78
2022/11/21 05:54:05;;;;;;;34.35;22.20;;;1.90;99.90;;;;;;5134957;27;20043;-78
2022/11/21 05:56:31;;;;;;;32.65;21.85;;;0.60;99.90;;;;;;5117490;27;20043;-78
2022/11/21 05:58:58;;;;;;;33.42;22.73;;;0.60;99.90;;;;;;5100562;27;20046;-78
2022/11/21 06:04:12;;;;;;;36.80;22.33;;;0.70;99.90;;;;;;5105798;27;20085;-78
2022/11/21 06:06:38;;;;;;;33.90;22.38;;;0.70;99.90;;;;;;5116583;27;20085;-78
2022/11/21 06:09:04;;;;;;;33.08;21.15;;;0.70;99.90;;;;;;5099134;28;20046;-78
2022/11/21 06:11:30;;;;;;;30.48;20.48;;;0.70;99.90;;;;;;5079110;28;20071;-78
2022/11/21 06:13:55;;;;;;;34.95;21.63;;;0.60;99.90;;;;;;5109189;27;20120;-78
2022/11/21 06:16:21;;;;;;;32.17;21.27;;;2.00;99.90;;;;;;5100614;27;20046;-78
2022/11/21 06:18:49;;;;;;;32.83;21.30;;;1.90;99.90;;;;;;5116715;27;20031;-78
2022/11/21 06:21:16;;;;;;;31.92;20.98;;;0.60;99.90;;;;;;5134574;27;20059;-78
2022/11/21 06:23:43;;;;;;;32.45;21.08;;;1.60;99.90;;;;;;5134365;27;20050;-78
2022/11/21 06:26:12;;;;;;;32.15;21.00;;;0.60;99.90;;;;;;5115355;27;20139;-79
2022/11/21 06:28:40;;;;;;;33.08;22.40;;;0.60;99.90;;;;;;5116332;27;20264;-78
2022/11/21 06:31:14;;;;;;;34.25;21.27;;;0.60;99.90;;;;;;5116052;27;20487;-79
2022/11/21 06:33:41;;;;;;;33.00;21.88;;;0.60;99.90;;;;;;5116612;27;20039;-78
2022/11/21 06:36:09;;;;;;;37.78;22.60;;;0.60;99.90;;;;;;5100039;27;20042;-78
2022/11/21 06:38:35;;;;;;;33.70;21.67;;;0.60;99.90;;;;;;5116154;27;20047;-78
2022/11/21 06:41:11;;;;;;;35.13;21.60;;;0.60;99.90;;;;;;5115909;27;20047;-78
2022/11/21 06:43:37;;;;;;;33.33;20.98;;;0.60;99.90;;;;;;5134548;27;20074;-78
2022/11/21 06:46:03;;;;;;;34.05;22.38;;;0.90;99.90;;;;;;5134069;27;20089;-78
2022/11/21 06:48:30;;;;;;;35.00;22.70;;;1.80;99.90;;;;;;5134351;27;20055;-78
2022/11/21 06:50:56;;;;;;;36.75;24.17;;;1.00;99.90;;;;;;5098608;27;20043;-78
2022/11/21 06:53:23;;;;;;;35.20;22.52;;;1.00;99.90;;;;;;5133622;27;20032;-78
2022/11/21 06:55:48;;;;;;;36.67;23.10;;;0.30;99.90;;;;;;5115952;27;20183;-78
2022/11/21 06:58:14;;;;;;;33.55;22.48;;;2.00;99.90;;;;;;5135070;27;20495;-78
2022/11/21 07:00:40;;;;;;;33.40;21.00;;;0.20;99.90;;;;;;5133290;27;20127;-79
2022/11/21 07:03:06;;;;;;;33.20;21.92;;;0.30;99.90;;;;;;5133927;27;20031;-79
2022/11/21 07:05:32;;;;;;;37.25;22.65;;;0.20;99.90;;;;;;5133563;27;20043;-79
2022/11/21 07:08:02;;;;;;;33.17;22.58;;;0.20;99.90;;;;;;5115790;27;20035;-78
2022/11/21 07:10:29;;;;;;;36.65;23.33;;;0.20;99.90;;;;;;5134709;27;20391;-78
2022/11/21 07:15:44;;;;;;;36.42;22.88;;;0.10;99.90;;;;;;5133378;27;20054;-78
2022/11/21 07:18:10;;;;;;;36.38;24.23;;;0.10;99.90;;;;;;5116545;27;20070;-78
2022/11/21 07:20:35;;;;;;;36.45;22.95;;;1.20;99.90;;;;;;5098538;27;20119;-79
2022/11/21 07:23:02;;;;;;;37.35;23.75;;;0.40;99.90;;;;;;5114926;27;20475;-78
2022/11/21 07:25:28;;;;;;;35.95;22.77;;;-0.10;99.90;;;;;;5114552;27;20066;-79
2022/11/21 07:27:56;;;;;;;42.75;24.20;;;-0.10;99.90;;;;;;5115030;27;20046;-79
2022/11/21 07:30:22;;;;;;;35.92;22.50;;;1.50;99.90;;;;;;5113311;27;20043;-78
2022/11/21 07:32:57;;;;;;;38.95;24.30;;;1.50;99.90;;;;;;5115321;27;20382;-79
2022/11/21 07:35:23;;;;;;;39.13;25.20;;;0.00;99.90;;;;;;5114443;28;20043;-80
2022/11/21 07:37:49;;;;;;;36.47;23.00;;;0.00;99.90;;;;;;5133162;27;20099;-79
2022/11/21 07:40:15;;;;;;;38.42;24.50;;;0.10;99.90;;;;;;5114677;28;20035;-80
2022/11/21 07:42:41;;;;;;;38.80;24.20;;;0.10;99.90;;;;;;5115049;28;20187;-79
2022/11/21 07:45:08;;;;;;;38.83;24.23;;;0.10;99.90;;;;;;5115424;28;20051;-78
2022/11/21 07:47:34;;;;;;;39.35;23.65;;;0.20;99.90;;;;;;5115585;28;20558;-78
2022/11/21 07:49:59;;;;;;;39.60;23.20;;;0.30;99.90;;;;;;5114214;28;20125;-78
2022/11/21 07:52:25;;;;;;;37.55;22.88;;;0.30;99.90;;;;;;5114563;28;20034;-78
2022/11/21 07:54:51;;;;;;;35.08;22.20;;;1.40;99.90;;;;;;5114301;28;20039;-79
2022/11/21 07:57:17;;;;;;;39.20;22.35;;;0.30;99.90;;;;;;5114425;28;20046;-78
2022/11/21 07:59:43;;;;;;;34.60;21.30;;;0.30;99.90;;;;;;5114151;28;20041;-78
2022/11/21 08:02:20;;;;;;;36.92;22.30;;;1.20;99.90;;;;;;5132166;28;20055;-79
2022/11/21 08:04:46;;;;;;;35.70;21.55;;;1.90;99.90;;;;;;5110833;28;20035;-78
2022/11/21 08:07:16;;;;;;;34.67;20.95;;;1.40;99.90;;;;;;5131101;28;20070;-79
2022/11/21 08:09:42;;;;;;;36.10;21.90;;;0.50;99.90;;;;;;5113441;28;20123;-79
2022/11/21 08:12:08;;;;;;;36.88;21.60;;;0.50;99.90;;;;;;5094293;28;20044;-80
2022/11/21 08:14:34;;;;;;;35.03;21.15;;;2.20;99.90;;;;;;5091840;28;20050;-80
2022/11/21 08:17:00;;;;;;;35.30;21.75;;;0.70;99.90;;;;;;5115185;28;20487;-80
2022/11/21 08:19:26;;;;;;;32.60;19.98;;;1.60;99.90;;;;;;5109215;28;20585;-80
2022/11/21 08:21:51;;;;;;;33.05;20.08;;;0.90;99.90;;;;;;5112501;28;20464;-80
2022/11/21 08:24:17;;;;;;;33.63;20.33;;;0.10;99.90;;;;;;5132800;28;20096;-81
2022/11/21 08:26:44;;;;;;;32.58;21.20;;;1.90;99.90;;;;;;5113908;27;20075;-80
2022/11/21 08:29:10;;;;;;;34.03;20.17;;;2.70;99.90;;;;;;5135750;27;20050;-80
2022/11/21 08:31:37;;;;;;;32.75;19.42;;;1.30;99.90;;;;;;5118604;27;20484;-81
2022/11/21 08:34:03;;;;;;;29.83;18.58;;;1.50;99.90;;;;;;5118324;27;20153;-81
2022/11/21 08:36:29;;;;;;;33.17;18.67;;;1.70;99.90;;;;;;5100835;27;20059;-80
2022/11/21 08:38:54;;;;;;;28.77;18.13;;;3.40;99.90;;;;;;5099315;27;20047;-81
2022/11/21 08:44:05;;;;;;;27.63;18.63;;;3.90;99.90;;;;;;5137847;27;20046;-79
2022/11/21 08:46:35;;;;;;;28.30;18.58;;;2.60;99.90;;;;;;5117722;27;20066;-81
2022/11/21 08:49:05;;;;;;;27.63;17.63;;;3.20;99.90;;;;;;5097925;28;20456;-78
2022/11/21 08:51:31;;;;;;;26.17;17.23;;;2.60;99.90;;;;;;5097510;28;20503;-80
2022/11/21 08:53:56;;;;;;;28.70;17.50;;;2.60;99.90;;;;;;5097812;28;20187;-78
2022/11/21 08:56:22;;;;;;;27.95;17.73;;;3.90;99.90;;;;;;5080115;28;20047;-78
2022/11/21 08:58:48;;;;;;;26.83;17.15;;;3.70;99.90;;;;;;5098539;28;20043;-78
2022/11/21 09:01:14;;;;;;;27.40;17.73;;;2.50;99.90;;;;;;5080906;28;20039;-78
2022/11/21 09:03:39;;;;;;;28.80;17.85;;;3.00;99.90;;;;;;5097427;28;20102;-78
2022/11/21 09:06:05;;;;;;;26.50;17.27;;;2.90;99.90;;;;;;5116229;28;20088;-78
2022/11/21 09:08:31;;;;;;;30.10;17.83;;;2.00;99.90;;;;;;5097824;28;20040;-78
2022/11/21 09:10:57;;;;;;;31.38;19.17;;;1.90;99.90;;;;;;5115687;28;20036;-78
2022/11/21 09:13:22;;;;;;;26.65;16.65;;;3.30;99.90;;;;;;5098903;27;20102;-80
2022/11/21 09:18:32;;;;;;;27.38;17.23;;;1.80;99.90;;;;;;5135741;27;20130;-78
2022/11/21 09:20:58;;;;;;;25.08;16.67;;;1.80;99.90;;;;;;5098565;27;20081;-78
2022/11/21 09:23:24;;;;;;;31.42;18.13;;;2.60;99.90;;;;;;5092720;28;20121;-78
2022/11/21 09:25:49;;;;;;;29.73;16.35;;;3.00;99.90;;;;;;5096796;28;20044;-78
2022/11/21 09:28:15;;;;;;;28.75;18.52;;;1.90;99.90;;;;;;5115049;28;20383;-78
2022/11/21 09:30:42;;;;;;;27.25;16.73;;;1.90;99.90;;;;;;5096539;28;20040;-79
2022/11/21 09:33:13;;;;;;;28.63;18.33;;;1.90;99.90;;;;;;5096610;28;20178;-78
2022/11/21 09:35:39;;;;;;;27.25;16.98;;;3.40;99.90;;;;;;5080149;28;20180;-78
2022/11/21 09:38:05;;;;;;;26.33;17.05;;;2.00;99.90;;;;;;5124918;27;20063;-78
2022/11/21 09:40:32;;;;;;;24.13;15.50;;;2.00;99.90;;;;;;5100538;27;20407;-81
2022/11/21 09:42:58;;;;;;;29.50;17.45;;;2.80;99.90;;;;;;5117863;27;20043;-80
2022/11/21 09:45:33;;;;;;;29.33;17.75;;;2.00;99.90;;;;;;5116827;27;20086;-79
2022/11/21 09:48:11;;;;;;;25.13;16.15;;;2.00;99.90;;;;;;5117209;27;20046;-79
2022/11/21 09:50:43;;;;;;;28.65;16.60;;;3.40;99.90;;;;;;5113352;27;20519;-79
2022/11/21 09:53:26;;;;;;;26.35;17.38;;;2.00;99.90;;;;;;5134365;27;20070;-79
2022/11/21 09:56:04;;;;;;;25.45;16.10;;;2.00;99.90;;;;;;5116172;27;20058;-79
2022/11/21 09:58:44;;;;;;;29.55;17.65;;;2.00;99.90;;;;;;5097574;28;20048;-79
2022/11/21 10:01:14;;;;;;;29.25;17.42;;;3.20;99.90;;;;;;5114137;27;20169;-80
2022/11/21 10:03:49;;;;;;;26.30;17.60;;;2.70;99.90;;;;;;5117344;27;20043;-80
2022/11/21 10:06:47;;;;;;;27.02;16.38;;;2.30;99.90;;;;;;5125774;27;20048;-80
2022/11/21 10:09:16;;;;;;;27.83;17.88;;;2.40;99.90;;;;;;5068466;27;20051;-80
2022/11/21 10:14:47;;;;;;;26.52;16.88;;;2.70;99.90;;;;;;5134426;27;20051;-78
2022/11/21 10:17:36;;;;;;;25.48;16.70;;;2.90;99.90;;;;;;5116584;27;20146;-78
2022/11/21 10:20:20;;;;;;;27.35;16.90;;;3.00;99.90;;;;;;5076611;27;20058;-78
2022/11/21 10:23:05;;;;;;;24.92;16.27;;;3.10;99.90;;;;;;5116052;27;20063;-79
2022/11/21 10:25:37;;;;;;;24.45;16.42;;;3.10;99.90;;;;;;5133830;27;20554;-81
2022/11/21 10:28:15;;;;;;;24.73;15.65;;;4.60;99.90;;;;;;5134468;27;20090;-78
2022/11/21 10:30:45;;;;;;;24.75;16.00;;;3.30;99.90;;;;;;5132403;27;20046;-78
2022/11/21 10:33:22;;;;;;;27.27;16.45;;;3.40;99.90;;;;;;5136504;27;20491;-78
2022/11/21 10:35:55;;;;;;;24.63;16.63;;;4.60;99.90;;;;;;5155342;27;20066;-78
2022/11/21 10:38:24;;;;;;;25.38;15.10;;;4.20;99.90;;;;;;5136241;27;20038;-78
2022/11/21 10:40:51;;;;;;;21.58;14.05;;;4.30;99.90;;;;;;5153985;27;20070;-79
2022/11/21 10:46:24;;;;;;;24.75;15.93;;;3.90;99.90;;;;;;5149281;27;20059;-78
2022/11/21 10:48:59;;;;;;;24.77;15.95;;;4.00;99.90;;;;;;5134348;27;20051;-78
2022/11/21 10:51:25;;;;;;;22.45;14.80;;;4.00;99.90;;;;;;5132972;27;20517;-78
2022/11/21 10:56:48;;;;;;;22.90;15.15;;;4.00;99.90;;;;;;5110043;27;20349;-78
2022/11/21 10:59:25;;;;;;;22.27;14.15;;;4.00;99.90;;;;;;5116053;27;20502;-78
2022/11/21 11:02:11;;;;;;;22.27;14.80;;;4.10;99.90;;;;;;5134346;27;20043;-78
2022/11/21 11:04:37;;;;;;;19.70;14.02;;;4.10;99.90;;;;;;5115474;27;20047;-79
2022/11/21 11:07:35;;;;;;;21.17;13.55;;;4.60;99.90;;;;;;5114876;27;20043;-79
2022/11/21 11:10:22;;;;;;;19.75;13.27;;;4.30;99.90;;;;;;5077470;27;20105;-79
2022/11/21 11:15:38;;;;;;;17.88;13.27;;;4.70;99.90;;;;;;5133917;27;20047;-78
2022/11/21 11:18:11;;;;;;;20.33;13.27;;;6.30;99.90;;;;;;5115515;27;20058;-79
2022/11/21 11:20:38;;;;;;;19.83;12.32;;;7.50;99.90;;;;;;5114853;27;20050;-80
2022/11/21 11:23:19;;;;;;;16.15;11.65;;;9.50;99.90;;;;;;5133413;27;20103;-80
2022/11/21 11:26:08;;;;;;;18.88;12.13;;;;;;;;;;5114925;27;20153;-80
2022/11/21 11:28:35;;;;;;;15.15;10.15;;;11.00;99.90;;;;;;5096973;27;20047;-80
2022/11/21 11:31:02;;;;;;;17.50;10.98;;;13.00;99.90;;;;;;5114862;27;20070;-80
2022/11/21 11:33:36;;;;;;;14.68;10.57;;;14.00;99.90;;;;;;5134262;27;20027;-79
2022/11/21 11:36:29;;;;;;;15.07;9.75;;;14.50;97.80;;;;;;5115544;28;20380;-80
2022/11/21 11:38:58;;;;;;;14.30;10.55;;;14.60;96.90;;;;;;5115113;27;20344;-80
2022/11/21 11:48:00;;;;;;;16.08;10.30;;;15.30;95.70;;;;;;5013354;28;20050;-80
2022/11/21 11:50:35;;;;;;;20.98;11.32;;;14.20;94.40;;;;;;5129360;28;20094;-80
2022/11/21 11:53:02;;;;;;;16.75;11.40;;;;;;;;;;5114631;28;20043;-80
2022/11/21 11:55:36;;;;;;;17.90;10.77;;;;;;;;;;5133194;28;20460;-81
2022/11/21 11:58:10;;;;;;;15.73;10.65;;;12.50;96.20;;;;;;5133557;28;20043;-81
2022/11/21 12:00:45;;;;;;;16.55;10.88;;;11.10;99.90;;;;;;5134131;28;20337;-80
2022/11/21 12:03:23;;;;;;;15.35;11.35;;;10.70;99.90;;;;;;5118683;27;20078;-80
2022/11/21 12:06:03;;;;;;;17.67;10.63;;;;;;;;;;5136882;27;20047;-80
2022/11/21 12:08:39;;;;;;;22.05;11.77;;;10.60;99.90;;;;;;5106130;28;20122;-80
2022/11/21 12:14:12;;;;;;;14.52;9.82;;;10.20;99.90;;;;;;5116840;28;20094;-80
2022/11/21 12:16:40;;;;;;;16.58;10.07;;;9.30;99.90;;;;;;5098482;28;20115;-80
2022/11/21 12:19:14;;;;;;;20.92;11.15;;;8.50;99.90;;;;;;5098870;28;20056;-79
2022/11/21 12:21:40;;;;;;;22.45;10.95;;;8.00;99.90;;;;;;5116209;28;20568;-80
2022/11/21 12:24:10;;;;;;;15.88;10.88;;;7.50;99.90;;;;;;5098211;28;20177;-79
2022/11/21 12:26:50;;;;;;;14.38;10.05;;;7.10;99.90;;;;;;5097937;28;20051;-79
2022/11/21 12:29:22;;;;;;;16.58;11.57;;;6.70;99.90;;;;;;5099038;28;20372;-78
2022/11/21 12:32:10;;;;;;;20.50;10.18;;;6.40;99.90;;;;;;5116479;28;20035;-79
2022/11/21 12:35:21;;;;;;;15.48;10.52;;;6.20;99.90;;;;;;5116279;28;20048;-79
2022/11/21 12:38:05;;;;;;;18.50;10.55;;;6.00;99.90;;;;;;5033635;28;20088;-79
2022/11/21 12:42:47;;;;;;;15.50;10.30;;;5.90;99.90;;;;;;5096894;28;20076;-79
2022/11/21 12:44:22;;;;;;;18.25;11.18;;;5.70;99.90;;;;;;5115782;28;20583;-79
2022/11/21 12:46:50;;;;;;;17.60;10.82;;;5.60;99.90;;;;;;5097830;28;20040;-79
2022/11/21 12:55:38;;;;;;;19.58;10.65;;;5.30;99.90;;;;;;5083017;28;20052;-79
2022/11/21 12:58:21;;;;;;;17.42;10.73;;;5.30;99.90;;;;;;5115971;28;20073;-79
2022/11/21 13:01:23;;;;;;;14.40;9.98;;;5.20;99.90;;;;;;5115641;28;20039;-79
2022/11/21 13:04:02;;;;;;;16.02;10.40;;;5.20;99.90;;;;;;5115821;28;20040;-79
2022/11/21 13:06:32;;;;;;;17.80;11.00;;;5.20;99.90;;;;;;5097406;28;20043;-79
2022/11/21 13:09:01;;;;;;;16.35;10.52;;;5.10;99.90;;;;;;5114176;27;20047;-79
2022/11/21 13:12:00;;;;;;;16.50;10.07;;;5.90;99.90;;;;;;5136630;27;20050;-79
2022/11/21 13:14:50;;;;;;;16.55;10.23;;;5.10;99.90;;;;;;5113551;28;20042;-79
2022/11/21 13:17:27;;;;;;;16.35;10.18;;;5.10;99.90;;;;;;5115566;28;20122;-79
2022/11/21 13:20:30;;;;;;;16.42;10.80;;;5.20;99.90;;;;;;5080228;28;20039;-79
2022/11/21 13:23:05;;;;;;;15.90;10.13;;;5.20;99.90;;;;;;5097001;28;20123;-79
2022/11/21 13:25:30;;;;;;;17.10;11.18;;;5.00;99.90;;;;;;5097810;28;20036;-79
2022/11/21 13:28:18;;;;;;;20.05;11.68;;;6.10;99.90;;;;;;5097401;28;20204;-79
2022/11/21 13:30:49;;;;;;;21.40;11.13;;;4.80;99.90;;;;;;5115362;28;20071;-79